Time;durP1;ratioP1;P1;durP2;ratioP2;P2;SDS_P1;SDS_P2;PMS_P1;PMS_P2;Temp;Humidity;BMP_temperature;BMP_pressure;BME280_temperature;BME280_humidity;BME280_pressure;Samples;Min_cycle;Max_cycle;Signal;HPM_P1;HPM_P2
2022/01/11 00:02:18;;;;;;;52.20;22.80;;;0.60;99.90;;;;;;5058465;28;20511;-51
2022/01/11 00:04:47;;;;;;;40.23;22.90;;;0.60;99.90;;;;;;5058234;28;20427;-52
2022/01/11 00:07:16;;;;;;;47.23;24.50;;;0.60;99.90;;;;;;5057791;28;20455;-54
2022/01/11 00:09:45;;;;;;;46.50;19.70;;;0.60;99.90;;;;;;5057529;28;20431;-51
2022/01/11 00:12:12;;;;;;;37.93;18.93;;;0.60;99.90;;;;;;5057525;28;20452;-52
2022/01/11 00:14:39;;;;;;;37.27;19.73;;;0.60;99.90;;;;;;5057386;28;20467;-48
2022/01/11 00:17:07;;;;;;;42.33;21.30;;;0.50;99.90;;;;;;5057392;28;20563;-47
2022/01/11 00:19:34;;;;;;;37.27;17.97;;;0.50;99.90;;;;;;5057218;28;20464;-47
2022/01/11 00:22:06;;;;;;;50.20;21.57;;;0.50;99.90;;;;;;5057352;28;20539;-52
2022/01/11 00:24:35;;;;;;;45.13;25.67;;;0.50;99.90;;;;;;5057204;28;20424;-52
2022/01/11 00:27:04;;;;;;;50.10;24.17;;;0.50;99.90;;;;;;5057267;28;20442;-48
2022/01/11 00:29:33;;;;;;;46.13;22.50;;;0.50;99.90;;;;;;5056543;28;20478;-51
2022/01/11 00:32:07;;;;;;;28.97;16.77;;;0.50;99.90;;;;;;5056659;28;20496;-50
2022/01/11 00:34:47;;;;;;;51.83;21.70;;;0.40;99.90;;;;;;5057183;28;20400;-54
2022/01/11 00:37:14;;;;;;;38.83;21.47;;;0.40;99.90;;;;;;5057301;28;20482;-53
2022/01/11 00:39:42;;;;;;;71.33;24.07;;;0.40;99.90;;;;;;5057479;28;20466;-48
2022/01/11 00:42:09;;;;;;;50.00;24.70;;;0.30;99.90;;;;;;5057214;28;20483;-53
2022/01/11 00:44:36;;;;;;;34.43;19.70;;;0.40;99.90;;;;;;5056675;28;20508;-51
2022/01/11 00:47:03;;;;;;;37.10;22.67;;;0.40;99.90;;;;;;5056803;28;20479;-50
2022/01/11 00:49:32;;;;;;;40.67;24.87;;;0.30;99.90;;;;;;5056912;28;20468;-54
2022/01/11 00:51:59;;;;;;;38.43;17.30;;;0.30;99.90;;;;;;5057110;28;20454;-49
2022/01/11 00:54:25;;;;;;;51.67;23.53;;;0.40;99.90;;;;;;5056988;28;20439;-52
2022/01/11 00:56:53;;;;;;;45.70;20.80;;;0.40;99.90;;;;;;5056461;28;20456;-50
2022/01/11 00:59:22;;;;;;;51.30;21.67;;;0.40;99.90;;;;;;5056586;28;20440;-53
2022/01/11 01:01:48;;;;;;;61.50;22.67;;;0.40;99.90;;;;;;5056108;28;20483;-54
2022/01/11 01:04:15;;;;;;;55.13;27.90;;;0.40;99.90;;;;;;5056556;28;20441;-51
2022/01/11 01:06:44;;;;;;;50.87;23.10;;;0.40;99.90;;;;;;5056606;28;20453;-55
2022/01/11 01:09:11;;;;;;;48.63;23.17;;;0.40;99.90;;;;;;5056690;28;20439;-52
2022/01/11 01:11:38;;;;;;;58.70;25.07;;;0.40;99.90;;;;;;5056479;28;20432;-55
2022/01/11 01:14:06;;;;;;;58.60;24.47;;;0.40;99.90;;;;;;5056676;28;20470;-52
2022/01/11 01:16:32;;;;;;;63.73;24.80;;;0.40;99.90;;;;;;5056823;28;20499;-46
2022/01/11 01:18:59;;;;;;;51.33;23.10;;;0.40;99.90;;;;;;5056516;28;20455;-48
2022/01/11 01:21:26;;;;;;;50.87;21.63;;;0.40;99.90;;;;;;5056401;28;20505;-53
2022/01/11 01:23:55;;;;;;;38.50;17.70;;;0.30;99.90;;;;;;5056278;28;20471;-54
2022/01/11 01:26:22;;;;;;;46.27;22.93;;;0.30;99.90;;;;;;5056216;28;20501;-55
2022/01/11 01:28:49;;;;;;;65.40;22.57;;;0.30;99.90;;;;;;5056518;28;20471;-52
2022/01/11 01:31:18;;;;;;;39.60;20.30;;;0.20;99.90;;;;;;5055992;28;20453;-48
2022/01/11 01:33:45;;;;;;;52.30;17.00;;;0.20;99.90;;;;;;5056428;28;20459;-54
2022/01/11 01:36:12;;;;;;;39.50;18.00;;;0.30;99.90;;;;;;5056151;28;20452;-51
2022/01/11 01:38:40;;;;;;;48.63;24.53;;;0.30;99.90;;;;;;5056166;28;20464;-54
2022/01/11 01:41:13;;;;;;;52.43;20.77;;;0.40;99.90;;;;;;5056159;28;20456;-52
2022/01/11 01:43:41;;;;;;;43.60;20.97;;;0.30;99.90;;;;;;5055649;28;20437;-49
2022/01/11 01:46:08;;;;;;;54.27;23.07;;;0.30;99.90;;;;;;5056006;28;20434;-53
2022/01/11 01:48:36;;;;;;;61.23;21.93;;;0.30;99.90;;;;;;5055969;28;20452;-49
2022/01/11 01:51:04;;;;;;;42.63;20.80;;;0.30;99.90;;;;;;5055803;28;20465;-55
2022/01/11 01:53:30;;;;;;;48.23;20.20;;;0.30;99.90;;;;;;5055857;28;20436;-53
2022/01/11 01:55:57;;;;;;;60.60;23.60;;;0.30;99.90;;;;;;5056355;28;20615;-53
2022/01/11 01:58:25;;;;;;;48.40;21.40;;;0.20;99.90;;;;;;5056022;28;20487;-54
2022/01/11 02:00:55;;;;;;;39.00;17.77;;;0.20;99.90;;;;;;5055984;28;20648;-47
2022/01/11 02:03:26;;;;;;;44.00;21.20;;;0.20;99.90;;;;;;5055881;28;20475;-47
2022/01/11 02:05:55;;;;;;;39.20;19.93;;;0.20;99.90;;;;;;5055572;28;20437;-54
2022/01/11 02:08:23;;;;;;;36.00;21.30;;;0.20;99.90;;;;;;5055614;28;20475;-50
2022/01/11 02:10:53;;;;;;;46.63;22.40;;;0.20;99.90;;;;;;5056028;28;20432;-52
2022/01/11 02:13:19;;;;;;;42.70;17.97;;;0.10;99.90;;;;;;5055897;28;20420;-53
2022/01/11 02:15:46;;;;;;;43.77;21.63;;;0.10;99.90;;;;;;5055702;28;20444;-51
2022/01/11 02:18:16;;;;;;;57.93;20.07;;;0.10;99.90;;;;;;5055516;28;20436;-54
2022/01/11 02:20:45;;;;;;;39.57;17.27;;;0.10;99.90;;;;;;5055364;28;20471;-52
2022/01/11 02:23:12;;;;;;;37.80;19.43;;;0.10;99.90;;;;;;5058452;28;20486;-54
2022/01/11 02:25:40;;;;;;;34.50;15.57;;;0.10;99.90;;;;;;5059297;28;20448;-50
2022/01/11 02:28:08;;;;;;;44.00;19.90;;;0.10;99.90;;;;;;5060052;28;20454;-51
2022/01/11 02:30:35;;;;;;;42.07;20.97;;;0.10;99.90;;;;;;5059582;28;20454;-55
2022/01/11 02:33:04;;;;;;;53.83;20.33;;;0.10;99.90;;;;;;5059285;28;20466;-53
2022/01/11 02:35:31;;;;;;;43.90;21.40;;;0.20;99.90;;;;;;5059829;28;20519;-52
2022/01/11 02:37:59;;;;;;;59.07;21.73;;;0.10;99.90;;;;;;5059504;28;20428;-49
2022/01/11 02:40:26;;;;;;;53.63;25.80;;;0.20;99.90;;;;;;5059337;28;20426;-55
2022/01/11 02:42:52;;;;;;;50.77;19.97;;;0.20;99.90;;;;;;5059414;28;20510;-48
2022/01/11 02:45:22;;;;;;;43.90;20.07;;;0.30;99.90;;;;;;5059358;28;20475;-53
2022/01/11 02:47:50;;;;;;;34.80;16.40;;;0.40;99.90;;;;;;5058967;28;20448;-52
2022/01/11 02:50:19;;;;;;;64.57;23.83;;;0.30;99.90;;;;;;5059516;28;20525;-51
2022/01/11 02:52:47;;;;;;;40.50;18.30;;;0.30;99.90;;;;;;5067282;28;20465;-47
2022/01/11 02:55:16;;;;;;;71.10;21.10;;;1.50;99.90;;;;;;5071494;28;20456;-48
2022/01/11 02:57:43;;;;;;;42.90;20.93;;;2.70;99.90;;;;;;5057788;28;20518;-47
2022/01/11 03:00:13;;;;;;;44.97;18.53;;;2.50;99.90;;;;;;5057908;28;20435;-49
2022/01/11 03:02:42;;;;;;;39.57;18.70;;;2.10;99.90;;;;;;5058500;28;20482;-52
2022/01/11 03:05:13;;;;;;;44.27;18.50;;;1.70;99.90;;;;;;5059076;28;20420;-55
2022/01/11 03:07:42;;;;;;;45.40;18.83;;;1.40;99.90;;;;;;5059125;28;20910;-53
2022/01/11 03:10:20;;;;;;;40.30;16.83;;;1.10;99.90;;;;;;5058727;28;20465;-54
2022/01/11 03:12:49;;;;;;;61.33;18.80;;;1.00;99.90;;;;;;5059048;28;20418;-54
2022/01/11 03:15:18;;;;;;;32.60;15.17;;;0.90;99.90;;;;;;5058798;28;20466;-54
2022/01/11 03:17:46;;;;;;;46.63;16.63;;;0.70;99.90;;;;;;5058623;28;20428;-48
2022/01/11 03:20:13;;;;;;;44.13;15.93;;;0.70;99.90;;;;;;5058706;28;20447;-48
2022/01/11 03:22:40;;;;;;;46.37;16.90;;;0.60;99.90;;;;;;5057854;28;20488;-52
2022/01/11 03:25:08;;;;;;;39.00;14.97;;;0.40;99.90;;;;;;5058060;28;20432;-48
2022/01/11 03:27:35;;;;;;;27.73;11.67;;;0.40;99.90;;;;;;5058440;28;20466;-51
2022/01/11 03:30:08;;;;;;;29.90;12.87;;;0.30;99.90;;;;;;5058469;28;20444;-52
2022/01/11 03:32:38;;;;;;;55.73;18.63;;;0.30;99.90;;;;;;5058761;28;20408;-49
2022/01/11 03:35:06;;;;;;;60.40;18.03;;;0.20;99.90;;;;;;5057419;28;20443;-50
2022/01/11 03:37:33;;;;;;;50.63;15.87;;;0.20;99.90;;;;;;5058288;28;20474;-51
2022/01/11 03:39:59;;;;;;;48.43;17.90;;;0.20;99.90;;;;;;5058021;28;20467;-54
2022/01/11 03:42:26;;;;;;;41.70;14.40;;;0.20;99.90;;;;;;5058277;28;20472;-52
2022/01/11 03:44:54;;;;;;;49.00;15.40;;;0.10;99.90;;;;;;5057764;28;20444;-50
2022/01/11 03:47:22;;;;;;;30.23;15.10;;;0.10;99.90;;;;;;5058359;28;20439;-47
2022/01/11 03:49:49;;;;;;;39.97;16.00;;;0.00;99.90;;;;;;5058063;28;20448;-55
2022/01/11 03:52:16;;;;;;;30.70;14.40;;;0.10;99.90;;;;;;5057803;28;20514;-52
2022/01/11 03:55:02;;;;;;;34.03;14.50;;;0.10;99.90;;;;;;5058317;28;20562;-55
2022/01/11 03:57:30;;;;;;;49.73;15.17;;;0.20;99.90;;;;;;5057880;28;20490;-52
2022/01/11 04:00:00;;;;;;;36.30;12.73;;;0.20;99.90;;;;;;5057507;28;20432;-53
2022/01/11 04:02:28;;;;;;;24.27;13.03;;;0.20;99.90;;;;;;5057893;28;20489;-55
2022/01/11 04:04:55;;;;;;;35.77;11.80;;;0.10;99.90;;;;;;5057695;28;20500;-51
2022/01/11 04:07:23;;;;;;;33.43;13.13;;;0.20;99.90;;;;;;5057122;28;20444;-49
2022/01/11 04:09:50;;;;;;;23.60;11.63;;;0.10;99.90;;;;;;5057049;28;20441;-48
2022/01/11 04:12:21;;;;;;;34.83;16.10;;;0.10;99.90;;;;;;5057646;28;20429;-55
2022/01/11 04:14:48;;;;;;;30.00;12.13;;;0.10;99.90;;;;;;5057964;28;20470;-54
2022/01/11 04:17:16;;;;;;;28.67;11.67;;;0.20;99.90;;;;;;5057357;28;20451;-49
2022/01/11 04:19:50;;;;;;;37.30;14.13;;;0.20;99.90;;;;;;5057100;28;20447;-49
2022/01/11 04:22:16;;;;;;;32.60;13.33;;;0.20;99.90;;;;;;5057297;28;20495;-55
2022/01/11 04:24:43;;;;;;;53.87;15.30;;;0.30;99.90;;;;;;5057659;28;20450;-51
2022/01/11 04:27:10;;;;;;;27.87;10.60;;;0.30;99.90;;;;;;5057427;28;20449;-50
2022/01/11 04:29:37;;;;;;;32.90;15.17;;;0.30;99.90;;;;;;5057406;28;20460;-51
2022/01/11 04:32:04;;;;;;;41.53;13.07;;;0.20;99.90;;;;;;5056990;28;20440;-53
2022/01/11 04:34:30;;;;;;;45.03;13.20;;;0.20;99.90;;;;;;5056922;28;20495;-49
2022/01/11 04:37:00;;;;;;;34.17;12.23;;;0.20;99.90;;;;;;5057045;28;20479;-51
2022/01/11 04:39:29;;;;;;;30.27;14.30;;;0.30;99.90;;;;;;5057073;28;20417;-54
2022/01/11 04:41:56;;;;;;;31.47;14.93;;;0.20;99.90;;;;;;5057023;28;20451;-53
2022/01/11 04:44:22;;;;;;;32.30;12.80;;;0.20;99.90;;;;;;5056314;28;20488;-55
2022/01/11 04:46:49;;;;;;;37.87;12.63;;;0.20;99.90;;;;;;5057050;28;20465;-53
2022/01/11 04:49:16;;;;;;;32.43;12.73;;;0.20;99.90;;;;;;5056667;28;20429;-49
2022/01/11 04:51:43;;;;;;;50.57;16.70;;;0.10;99.90;;;;;;5056758;28;20455;-46
2022/01/11 04:54:11;;;;;;;38.80;16.67;;;0.10;99.90;;;;;;5056635;28;20460;-48
2022/01/11 04:56:41;;;;;;;28.90;13.70;;;0.10;99.90;;;;;;5056697;28;20483;-55
2022/01/11 04:59:10;;;;;;;35.77;13.57;;;0.10;99.90;;;;;;5056657;28;20501;-53
2022/01/11 05:01:40;;;;;;;33.23;12.73;;;0.10;99.90;;;;;;5056636;28;20844;-49
2022/01/11 05:04:12;;;;;;;24.63;11.27;;;0.20;99.90;;;;;;5056531;28;20498;-53
2022/01/11 05:06:40;;;;;;;47.40;12.30;;;0.20;99.90;;;;;;5056220;28;20424;-51
2022/01/11 05:09:07;;;;;;;32.80;11.60;;;0.10;99.90;;;;;;5056582;28;20483;-46
2022/01/11 05:11:37;;;;;;;41.40;15.60;;;0.10;99.90;;;;;;5056196;28;20463;-46
2022/01/11 05:14:03;;;;;;;42.70;16.37;;;0.10;99.90;;;;;;5056559;28;20431;-49
2022/01/11 05:16:32;;;;;;;40.67;11.43;;;0.10;99.90;;;;;;5057240;28;20417;-49
2022/01/11 05:19:01;;;;;;;33.67;12.90;;;0.10;99.90;;;;;;5056994;28;20436;-52
2022/01/11 05:21:30;;;;;;;40.60;12.30;;;0.00;99.90;;;;;;5056946;28;20505;-57
2022/01/11 05:23:56;;;;;;;38.70;14.10;;;0.00;99.90;;;;;;5056679;28;20494;-51
2022/01/11 05:26:23;;;;;;;29.03;12.00;;;0.00;99.90;;;;;;5056683;28;20443;-48
2022/01/11 05:28:54;;;;;;;36.97;13.50;;;0.00;99.90;;;;;;5056192;28;20443;-52
2022/01/11 05:31:20;;;;;;;29.60;12.57;;;0.00;99.90;;;;;;5055874;28;20479;-54
2022/01/11 05:33:49;;;;;;;20.33;8.90;;;0.00;99.90;;;;;;5055752;28;20483;-53
2022/01/11 05:36:16;;;;;;;34.10;14.20;;;0.00;99.90;;;;;;5055566;28;20533;-51
2022/01/11 05:38:44;;;;;;;26.87;10.83;;;0.00;99.90;;;;;;5055850;28;20456;-54
2022/01/11 05:41:11;;;;;;;33.37;13.00;;;0.00;99.90;;;;;;5055563;28;20466;-47
2022/01/11 05:43:38;;;;;;;25.77;11.70;;;0.00;99.90;;;;;;5055776;28;20552;-50
2022/01/11 05:46:07;;;;;;;23.70;12.20;;;0.00;99.90;;;;;;5055818;28;20432;-53
2022/01/11 05:48:35;;;;;;;32.43;13.43;;;0.10;99.90;;;;;;5055591;28;20480;-49
2022/01/11 05:51:05;;;;;;;33.20;14.20;;;0.10;99.90;;;;;;5055697;28;20453;-52
2022/01/11 05:53:32;;;;;;;34.97;11.50;;;0.10;99.90;;;;;;5056058;28;20490;-49
2022/01/11 05:55:59;;;;;;;27.07;12.50;;;0.20;99.90;;;;;;5055127;28;20463;-51
2022/01/11 05:58:32;;;;;;;28.93;15.13;;;0.20;99.90;;;;;;5054728;28;20451;-51
2022/01/11 06:00:58;;;;;;;22.90;11.27;;;0.20;99.90;;;;;;5055548;28;20440;-51
2022/01/11 06:03:26;;;;;;;21.83;11.53;;;0.20;99.90;;;;;;5055117;28;20519;-49
2022/01/11 06:05:56;;;;;;;32.63;13.37;;;0.10;99.90;;;;;;5055324;28;20574;-51
2022/01/11 06:08:25;;;;;;;28.93;12.30;;;0.10;99.90;;;;;;5055497;28;20486;-50
2022/01/11 06:10:52;;;;;;;49.47;15.77;;;0.10;99.90;;;;;;5055533;28;20448;-53
2022/01/11 06:13:20;;;;;;;28.60;9.37;;;0.20;99.90;;;;;;5055269;28;20455;-55
2022/01/11 06:15:47;;;;;;;35.50;10.90;;;0.20;99.90;;;;;;5055407;28;20438;-55
2022/01/11 06:18:14;;;;;;;27.90;10.80;;;0.30;99.90;;;;;;5055061;28;20460;-49
2022/01/11 06:20:43;;;;;;;25.00;11.40;;;0.30;99.90;;;;;;5055920;28;20482;-52
2022/01/11 06:23:10;;;;;;;28.17;11.70;;;0.30;99.90;;;;;;5055726;28;20543;-53
2022/01/11 06:25:37;;;;;;;20.90;12.23;;;0.30;99.90;;;;;;5055362;28;20467;-55
2022/01/11 06:28:05;;;;;;;39.60;13.97;;;0.30;99.90;;;;;;5055032;28;20455;-55
2022/01/11 06:30:33;;;;;;;32.40;6.83;;;0.20;99.90;;;;;;5055013;28;20464;-48
2022/01/11 06:33:03;;;;;;;38.10;12.00;;;0.10;99.90;;;;;;5054674;28;20827;-55
2022/01/11 06:35:30;;;;;;;23.60;10.50;;;0.10;99.90;;;;;;5054920;28;20431;-51
2022/01/11 06:37:58;;;;;;;31.30;12.00;;;0.10;99.90;;;;;;5055233;28;20424;-51
2022/01/11 06:40:26;;;;;;;22.23;10.57;;;0.10;99.90;;;;;;5054743;28;20483;-49
2022/01/11 06:42:53;;;;;;;21.67;9.37;;;0.10;99.90;;;;;;5054449;28;20483;-55
2022/01/11 06:45:21;;;;;;;29.93;13.67;;;0.10;99.90;;;;;;5055244;28;20443;-54
2022/01/11 06:47:48;;;;;;;25.80;11.27;;;0.10;99.90;;;;;;5054463;28;20432;-59
2022/01/11 06:50:15;;;;;;;19.03;11.13;;;0.20;99.90;;;;;;5055124;28;20462;-56
2022/01/11 06:52:44;;;;;;;25.30;10.30;;;0.30;99.90;;;;;;5054985;28;20513;-54
2022/01/11 06:55:17;;;;;;;22.53;10.37;;;0.30;99.90;;;;;;5054593;28;20456;-55
2022/01/11 06:57:43;;;;;;;28.23;11.53;;;0.40;99.90;;;;;;5054897;28;20495;-56
2022/01/11 07:00:11;;;;;;;19.73;11.80;;;0.40;99.90;;;;;;5055027;28;20465;-46
2022/01/11 07:02:38;;;;;;;27.57;12.10;;;0.40;99.90;;;;;;5054651;28;20424;-49
2022/01/11 07:05:06;;;;;;;36.60;10.47;;;0.40;99.90;;;;;;5059333;28;20483;-52
2022/01/11 07:07:32;;;;;;;14.13;8.13;;;0.30;99.90;;;;;;5065975;28;20447;-54
2022/01/11 07:09:59;;;;;;;27.93;10.90;;;0.20;99.90;;;;;;5058711;28;20477;-52
2022/01/11 07:12:30;;;;;;;24.23;12.60;;;0.30;99.90;;;;;;5058199;28;20495;-55
2022/01/11 07:14:57;;;;;;;36.33;12.50;;;0.30;99.90;;;;;;5062359;28;20448;-51
2022/01/11 07:17:25;;;;;;;34.33;11.20;;;0.30;99.90;;;;;;5071115;28;20467;-53
2022/01/11 07:19:54;;;;;;;22.53;9.00;;;0.30;99.90;;;;;;5078104;28;20435;-53
2022/01/11 07:22:21;;;;;;;26.37;11.20;;;0.30;99.90;;;;;;5066142;28;20459;-52
2022/01/11 07:24:48;;;;;;;34.10;12.63;;;0.30;99.90;;;;;;5057603;28;20478;-52
2022/01/11 07:27:19;;;;;;;32.33;12.50;;;0.20;99.90;;;;;;5057551;28;20473;-51
2022/01/11 07:29:47;;;;;;;22.80;9.07;;;0.20;99.90;;;;;;5057967;28;20485;-51
2022/01/11 07:32:14;;;;;;;26.17;11.90;;;0.20;99.90;;;;;;5057805;28;20448;-55
2022/01/11 07:34:41;;;;;;;23.03;9.90;;;0.20;99.90;;;;;;5060002;28;20482;-55
2022/01/11 07:37:08;;;;;;;27.60;10.93;;;0.20;99.90;;;;;;5077468;28;20430;-53
2022/01/11 07:39:34;;;;;;;18.03;9.60;;;0.20;99.90;;;;;;5077792;28;20476;-52
2022/01/11 07:42:01;;;;;;;26.70;12.50;;;0.30;99.90;;;;;;5077110;28;20464;-50
2022/01/11 07:44:33;;;;;;;22.87;11.57;;;0.30;99.90;;;;;;5077404;28;20532;-52
2022/01/11 07:47:04;;;;;;;27.00;10.80;;;0.30;99.90;;;;;;5078030;28;20415;-55
2022/01/11 07:49:30;;;;;;;36.53;13.43;;;0.40;99.90;;;;;;5077538;28;20455;-54
2022/01/11 07:51:57;;;;;;;23.90;10.03;;;0.50;99.90;;;;;;5077385;28;20447;-52
2022/01/11 07:54:24;;;;;;;30.30;12.60;;;0.50;99.90;;;;;;5077778;28;20471;-50
2022/01/11 07:56:50;;;;;;;35.33;10.57;;;0.50;99.90;;;;;;5073138;28;20446;-54
2022/01/11 07:59:17;;;;;;;12.93;7.90;;;0.50;99.90;;;;;;5068911;28;20462;-52
2022/01/11 08:01:44;;;;;;;23.70;7.87;;;0.50;99.90;;;;;;5077415;28;20892;-49
2022/01/11 08:04:13;;;;;;;29.27;10.17;;;0.50;99.90;;;;;;5076890;28;20485;-53
2022/01/11 08:06:40;;;;;;;24.00;11.57;;;0.60;99.90;;;;;;5076877;28;20493;-53
2022/01/11 08:09:08;;;;;;;21.30;8.80;;;0.60;99.90;;;;;;5076440;28;20450;-52
2022/01/11 08:11:35;;;;;;;25.07;9.50;;;0.60;99.90;;;;;;5076630;28;20434;-50
2022/01/11 08:14:01;;;;;;;15.33;6.80;;;0.60;99.90;;;;;;5077107;28;20427;-54
2022/01/11 08:16:34;;;;;;;22.23;8.90;;;0.60;99.90;;;;;;5076809;28;20444;-53
2022/01/11 08:19:01;;;;;;;24.57;11.07;;;0.70;99.90;;;;;;5076282;28;20471;-51
2022/01/11 08:21:29;;;;;;;22.23;11.07;;;0.70;99.90;;;;;;5076354;28;20481;-50
2022/01/11 08:23:56;;;;;;;18.00;7.30;;;0.80;99.90;;;;;;5076479;28;20463;-54
2022/01/11 08:26:22;;;;;;;29.10;12.30;;;0.70;99.90;;;;;;5077020;28;20895;-52
2022/01/11 08:28:49;;;;;;;23.63;9.77;;;0.70;99.90;;;;;;5076095;28;20477;-47
2022/01/11 08:31:16;;;;;;;28.20;10.70;;;0.60;99.90;;;;;;5076103;28;20471;-52
2022/01/11 08:33:44;;;;;;;20.13;8.13;;;0.60;99.90;;;;;;5076444;28;20430;-49
2022/01/11 08:36:10;;;;;;;15.07;7.47;;;0.60;99.90;;;;;;5076163;28;20463;-53
2022/01/11 08:38:39;;;;;;;19.03;8.80;;;0.70;99.90;;;;;;5076392;28;20450;-53
2022/01/11 08:41:06;;;;;;;22.60;9.43;;;0.60;99.90;;;;;;5076575;28;20489;-49
2022/01/11 08:43:32;;;;;;;15.80;7.57;;;0.50;99.90;;;;;;5076064;28;20491;-51
2022/01/11 08:46:02;;;;;;;28.73;9.67;;;0.50;99.90;;;;;;5076203;28;20447;-52
2022/01/11 08:48:29;;;;;;;18.07;7.13;;;0.50;99.90;;;;;;5076634;28;20463;-52
2022/01/11 08:50:56;;;;;;;23.87;11.33;;;0.50;99.90;;;;;;5076686;28;20477;-55
2022/01/11 08:53:23;;;;;;;22.07;8.30;;;0.40;99.90;;;;;;5076540;28;20443;-53
2022/01/11 08:55:52;;;;;;;14.03;6.47;;;0.40;99.90;;;;;;5076453;28;20466;-56
2022/01/11 08:58:20;;;;;;;19.77;9.30;;;0.40;99.90;;;;;;5076187;28;20454;-55
2022/01/11 09:00:49;;;;;;;18.43;8.77;;;0.40;99.90;;;;;;5076444;28;20463;-59
2022/01/11 09:03:16;;;;;;;24.50;10.70;;;0.40;99.90;;;;;;5076482;28;20436;-62
2022/01/11 09:05:43;;;;;;;22.07;9.83;;;0.50;99.90;;;;;;5076024;28;20485;-50
2022/01/11 09:08:11;;;;;;;24.37;8.87;;;0.50;99.90;;;;;;5075650;28;20558;-51
2022/01/11 09:10:38;;;;;;;29.27;12.73;;;0.50;99.90;;;;;;5075656;28;20478;-51
2022/01/11 09:13:06;;;;;;;33.27;10.90;;;0.60;99.90;;;;;;5075379;28;20476;-54
2022/01/11 09:15:33;;;;;;;19.57;10.97;;;0.50;99.90;;;;;;5076000;28;20502;-53
2022/01/11 09:18:00;;;;;;;15.53;9.80;;;0.40;99.90;;;;;;5075791;28;20440;-55
2022/01/11 09:20:27;;;;;;;23.07;9.83;;;0.50;99.90;;;;;;5075496;28;20447;-52
2022/01/11 09:22:55;;;;;;;25.73;10.53;;;0.50;99.90;;;;;;5075644;28;20431;-54
2022/01/11 09:25:21;;;;;;;24.57;10.50;;;0.50;99.90;;;;;;5075431;28;20482;-52
2022/01/11 09:27:48;;;;;;;15.43;8.47;;;0.60;99.90;;;;;;5075601;28;20470;-53
2022/01/11 09:30:18;;;;;;;26.30;10.40;;;0.50;99.90;;;;;;5075590;28;20501;-55
2022/01/11 09:32:45;;;;;;;22.53;10.10;;;0.50;99.90;;;;;;5075156;28;20549;-55
2022/01/11 09:35:14;;;;;;;30.83;11.07;;;0.40;99.90;;;;;;5075244;28;20473;-54
2022/01/11 09:37:46;;;;;;;19.53;8.83;;;0.40;99.90;;;;;;5075530;28;20426;-54
2022/01/11 09:40:14;;;;;;;19.60;9.30;;;0.40;99.90;;;;;;5075602;28;20450;-52
2022/01/11 09:42:41;;;;;;;20.83;9.17;;;0.40;99.90;;;;;;5075476;28;20426;-54
2022/01/11 09:45:13;;;;;;;20.00;10.00;;;0.40;99.90;;;;;;5075474;28;20459;-50
2022/01/11 09:47:42;;;;;;;20.60;10.53;;;0.50;99.90;;;;;;5074890;28;20479;-53
2022/01/11 09:50:11;;;;;;;17.93;6.50;;;0.60;99.90;;;;;;5075064;28;20466;-46
2022/01/11 09:52:38;;;;;;;21.77;10.53;;;0.60;99.90;;;;;;5075123;28;20475;-51
2022/01/11 09:55:07;;;;;;;22.63;9.90;;;0.70;99.90;;;;;;5075178;28;20522;-51
2022/01/11 09:57:34;;;;;;;22.77;9.70;;;0.80;99.90;;;;;;5075049;28;20465;-52
2022/01/11 10:00:01;;;;;;;24.17;10.40;;;0.80;99.90;;;;;;5074806;28;20908;-56
2022/01/11 10:02:28;;;;;;;27.63;10.80;;;0.90;99.90;;;;;;5074392;28;20478;-53
2022/01/11 10:05:01;;;;;;;24.37;10.37;;;0.90;99.90;;;;;;5074763;28;20545;-55
2022/01/11 10:07:32;;;;;;;22.07;10.70;;;0.90;99.90;;;;;;5075149;28;20494;-52
2022/01/11 10:09:59;;;;;;;34.13;14.13;;;0.90;99.90;;;;;;5076008;28;20463;-52
2022/01/11 10:12:34;;;;;;;21.60;11.67;;;1.00;99.90;;;;;;5076022;28;20447;-51
2022/01/11 10:15:03;;;;;;;20.57;7.57;;;1.00;99.90;;;;;;5075341;28;20458;-55
2022/01/11 10:17:38;;;;;;;23.00;10.10;;;1.00;99.90;;;;;;5075486;28;20515;-53
2022/01/11 10:20:09;;;;;;;18.10;8.43;;;1.00;99.90;;;;;;5058996;28;20467;-49
2022/01/11 10:22:46;;;;;;;24.63;9.77;;;1.10;99.90;;;;;;5055410;28;20440;-51
2022/01/11 10:25:13;;;;;;;19.30;8.60;;;1.10;99.90;;;;;;5055356;28;20475;-54
2022/01/11 10:27:40;;;;;;;15.23;8.27;;;1.00;99.90;;;;;;5056066;28;20444;-50
2022/01/11 10:30:09;;;;;;;17.47;9.37;;;0.90;99.90;;;;;;5055187;28;20470;-50
2022/01/11 10:32:37;;;;;;;22.83;10.20;;;1.00;99.90;;;;;;5055498;28;20460;-49
2022/01/11 10:35:08;;;;;;;13.57;7.73;;;1.00;99.90;;;;;;5056093;28;20454;-53
2022/01/11 10:37:37;;;;;;;19.17;8.67;;;1.00;99.90;;;;;;5056088;28;20534;-51
2022/01/11 10:40:15;;;;;;;30.20;9.70;;;1.00;99.90;;;;;;5055959;28;20490;-51
2022/01/11 10:42:47;;;;;;;17.77;9.93;;;1.10;99.90;;;;;;5056788;28;20566;-52
2022/01/11 10:45:19;;;;;;;21.33;9.00;;;1.00;99.90;;;;;;5060372;28;20468;-58
2022/01/11 10:47:48;;;;;;;19.33;5.53;;;1.00;99.90;;;;;;5059981;28;20491;-56
2022/01/11 10:50:19;;;;;;;21.13;9.77;;;1.00;99.90;;;;;;5059693;28;20444;-54
2022/01/11 10:52:47;;;;;;;18.97;9.43;;;1.00;99.90;;;;;;5059935;28;20478;-49
2022/01/11 10:55:16;;;;;;;16.60;8.47;;;1.00;99.90;;;;;;5059519;28;20463;-52
2022/01/11 10:57:48;;;;;;;20.10;7.93;;;1.00;99.90;;;;;;5059929;28;20456;-47
2022/01/11 11:00:23;;;;;;;16.03;7.93;;;1.00;99.90;;;;;;5058569;28;20527;-56
2022/01/11 11:02:53;;;;;;;29.73;8.33;;;1.10;99.90;;;;;;5058025;28;20490;-54
2022/01/11 11:05:24;;;;;;;16.63;8.40;;;1.10;99.90;;;;;;5058188;28;20539;-52
2022/01/11 11:07:57;;;;;;;22.53;9.40;;;1.20;99.90;;;;;;5058322;28;20444;-52
2022/01/11 11:10:44;;;;;;;32.03;10.10;;;1.10;99.90;;;;;;5057972;28;20481;-51
2022/01/11 11:13:17;;;;;;;20.63;9.33;;;1.10;99.90;;;;;;5057799;28;20458;-52
2022/01/11 11:15:44;;;;;;;18.53;8.77;;;1.20;99.90;;;;;;5057407;28;20433;-52
2022/01/11 11:18:24;;;;;;;20.97;8.80;;;1.20;99.90;;;;;;5058097;28;20440;-50
2022/01/11 11:20:52;;;;;;;13.43;6.80;;;1.30;99.90;;;;;;5057932;28;20431;-54
2022/01/11 11:23:19;;;;;;;15.17;8.20;;;1.30;99.90;;;;;;5057617;28;20459;-55
2022/01/11 11:25:46;;;;;;;28.33;9.10;;;1.30;99.90;;;;;;5057522;28;20476;-54
2022/01/11 11:28:13;;;;;;;23.40;10.00;;;1.50;99.90;;;;;;5057049;28;20485;-53
2022/01/11 11:30:40;;;;;;;27.30;11.50;;;1.50;99.90;;;;;;5057458;28;20461;-55
2022/01/11 11:33:07;;;;;;;17.87;10.63;;;1.50;99.90;;;;;;5057267;28;20511;-53
2022/01/11 11:35:34;;;;;;;17.67;9.80;;;1.60;99.90;;;;;;5057036;28;20437;-53
2022/01/11 11:38:05;;;;;;;21.33;9.07;;;1.50;99.90;;;;;;5057500;28;20483;-52
2022/01/11 11:40:33;;;;;;;17.77;9.73;;;1.50;99.90;;;;;;5057270;28;20440;-53
2022/01/11 11:43:03;;;;;;;14.40;8.07;;;1.40;99.90;;;;;;5057366;28;20453;-51
2022/01/11 11:45:33;;;;;;;23.70;9.57;;;1.30;99.90;;;;;;5057334;28;20518;-52
2022/01/11 11:48:06;;;;;;;23.40;10.70;;;1.30;99.90;;;;;;5057169;28;20440;-53
2022/01/11 11:50:35;;;;;;;18.73;8.87;;;1.30;99.90;;;;;;5057300;28;20472;-54
2022/01/11 11:53:03;;;;;;;19.80;8.40;;;1.30;99.90;;;;;;5057018;28;20463;-54
2022/01/11 11:55:32;;;;;;;19.77;9.40;;;1.30;99.90;;;;;;5055842;28;20441;-52
2022/01/11 11:58:01;;;;;;;24.47;9.67;;;1.40;99.90;;;;;;5056791;28;20429;-53
2022/01/11 12:00:30;;;;;;;23.90;7.47;;;1.40;99.90;;;;;;5056793;28;20444;-53
2022/01/11 12:02:58;;;;;;;22.43;10.37;;;1.30;99.90;;;;;;5056480;28;20499;-52
2022/01/11 12:05:36;;;;;;;24.70;10.00;;;1.40;99.90;;;;;;5056631;28;20494;-55
2022/01/11 12:08:32;;;;;;;16.87;9.30;;;1.50;99.90;;;;;;5057014;28;20468;-54
2022/01/11 12:11:02;;;;;;;18.47;8.57;;;1.70;99.90;;;;;;5056944;28;20451;-49
2022/01/11 12:13:39;;;;;;;19.37;8.90;;;1.70;99.90;;;;;;5056863;28;20464;-53
2022/01/11 12:16:39;;;;;;;22.67;8.90;;;1.80;99.90;;;;;;5056399;28;20455;-53
2022/01/11 12:19:08;;;;;;;17.40;8.53;;;1.90;99.90;;;;;;5056729;28;20465;-53
2022/01/11 12:21:41;;;;;;;19.87;8.13;;;1.80;99.90;;;;;;5056331;28;20472;-53
2022/01/11 12:24:10;;;;;;;26.47;10.90;;;1.90;99.90;;;;;;5056108;28;20939;-53
2022/01/11 12:26:37;;;;;;;15.70;7.07;;;1.80;99.90;;;;;;5056107;28;20468;-54
2022/01/11 12:29:27;;;;;;;17.43;8.50;;;1.90;99.90;;;;;;5056354;28;20504;-53
2022/01/11 12:31:57;;;;;;;24.73;9.77;;;1.90;99.90;;;;;;5056268;28;20499;-54
2022/01/11 12:34:54;;;;;;;22.43;10.40;;;1.90;99.90;;;;;;5056488;28;20441;-54
2022/01/11 12:37:24;;;;;;;17.23;8.20;;;2.00;99.90;;;;;;5056611;28;20496;-55
2022/01/11 12:40:15;;;;;;;21.40;9.50;;;2.00;99.90;;;;;;5056553;28;20913;-53
2022/01/11 12:42:52;;;;;;;17.53;7.67;;;2.10;99.90;;;;;;5056666;28;20495;-55
2022/01/11 12:45:37;;;;;;;20.30;10.50;;;2.10;99.90;;;;;;5057160;28;20476;-56
2022/01/11 12:48:05;;;;;;;22.10;8.73;;;2.10;99.90;;;;;;5056563;28;20464;-55
2022/01/11 12:50:32;;;;;;;21.60;10.13;;;2.10;99.90;;;;;;5056785;28;20468;-52